Time;durP1;ratioP1;P1;durP2;ratioP2;P2;SDS_P1;SDS_P2;PMS_P1;PMS_P2;Temp;Humidity;BMP_temperature;BMP_pressure;BME280_temperature;BME280_humidity;BME280_pressure;Samples;Min_cycle;Max_cycle;Signal;HPM_P1;HPM_P2
2022/02/07 00:00:09;;;;;;;;;;;;;;;21.44;46.27;98952.19;5084629;28;4188;-58
2022/02/07 00:05:26;;;;;;;;;;;;;;;21.41;46.11;98993.91;5084774;28;4333;-58
2022/02/07 00:07:52;;;;;;;;;;;;;;;21.41;46.32;98988.13;5083843;28;5291;-58
2022/02/07 00:10:19;;;;;;;;;;;;;;;21.39;46.19;98985.91;5083109;28;4193;-58
2022/02/07 00:12:45;;;;;;;;;;;;;;;21.39;45.60;98990.97;5085438;28;4197;-58
2022/02/07 00:15:15;;;;;;;;;;;;;;;21.40;45.74;98992.44;5086078;28;5234;-58
2022/02/07 00:17:41;;;;;;;;;;;;;;;21.41;45.65;98994.63;5079894;28;4250;-58
2022/02/07 00:20:13;;;;;;;;;;;;;;;21.42;46.21;99006.88;5084208;28;4206;-59
2022/02/07 00:22:39;;;;;;;;;;;;;;;21.41;46.38;99000.38;5081293;28;4365;-58
2022/02/07 00:25:06;;;;;;;;;;;;;;;21.40;46.41;99006.81;5086426;28;4162;-59
2022/02/07 00:27:32;;;;;;;;;;;;;;;21.40;46.62;99015.47;5085890;28;4119;-59
2022/02/07 00:29:58;;;;;;;;;;;;;;;21.41;46.24;99016.94;5087026;28;4166;-59
2022/02/07 00:32:25;;;;;;;;;;;;;;;21.41;45.99;99034.19;5080303;28;6473;-58
2022/02/07 00:34:51;;;;;;;;;;;;;;;21.40;46.15;99039.25;5059015;28;4344;-58
2022/02/07 00:37:18;;;;;;;;;;;;;;;21.39;46.01;99029.09;5080201;28;5442;-58
2022/02/07 00:39:51;;;;;;;;;;;;;;;21.39;45.70;99045.66;5083821;28;4203;-59
2022/02/07 00:42:25;;;;;;;;;;;;;;;21.40;45.86;99050.00;5063570;28;4194;-59
2022/02/07 00:44:51;;;;;;;;;;;;;;;21.39;45.77;99055.03;5085038;28;4173;-59
2022/02/07 00:47:17;;;;;;;;;;;;;;;21.40;45.56;99061.53;5082856;28;4172;-58
2022/02/07 00:49:45;;;;;;;;;;;;;;;21.40;45.57;99064.41;5084407;28;5407;-59
2022/02/07 00:52:11;;;;;;;;;;;;;;;21.37;45.56;99080.19;5081190;28;4353;-58
2022/02/07 00:54:38;;;;;;;;;;;;;;;21.37;45.64;99091.69;5083921;28;4176;-58
2022/02/07 00:57:04;;;;;;;;;;;;;;;21.37;45.67;99091.69;5066527;28;4314;-59
2022/02/07 00:59:31;;;;;;;;;;;;;;;21.36;45.68;99093.84;5066714;28;4178;-58
2022/02/07 01:01:57;;;;;;;;;;;;;;;21.34;45.54;99106.06;5082055;28;4195;-59
2022/02/07 01:04:24;;;;;;;;;;;;;;;21.34;45.53;99102.47;5084748;28;4121;-59
2022/02/07 01:07:03;;;;;;;;;;;;;;;21.33;45.43;99098.13;5084113;28;4199;-59
2022/02/07 01:09:39;;;;;;;;;;;;;;;21.33;45.31;99109.66;5066226;28;4270;-59
2022/02/07 01:12:14;;;;;;;;;;;;;;;21.34;45.05;99111.81;5083925;28;5294;-58
2022/02/07 01:18:30;;;;;;;;;;;;;;;21.33;45.37;99112.53;5065381;28;4113;-58
2022/02/07 01:51:01;;;;;;;;;;;;;;;21.30;45.21;99197.41;5059943;28;4179;-58
2022/02/07 01:53:55;;;;;;;;;;;;;;;21.29;45.10;99201.72;5032999;28;4173;-58
2022/02/07 01:56:28;;;;;;;;;;;;;;;21.28;45.08;99198.09;5065853;28;5439;-58
2022/02/07 01:58:55;;;;;;;;;;;;;;;21.28;45.10;99212.50;5080986;28;4267;-59
2022/02/07 02:01:29;;;;;;;;;;;;;;;21.29;44.92;99224.75;5059801;28;4186;-57
2022/02/07 02:03:55;;;;;;;;;;;;;;;21.29;44.88;99231.22;5078629;28;4220;-59
2022/02/07 02:06:22;;;;;;;;;;;;;;;21.30;44.88;99226.94;5065321;28;4152;-58
2022/02/07 02:08:56;;;;;;;;;;;;;;;21.26;45.26;99232.63;5053055;28;4394;-59
2022/02/07 02:11:24;;;;;;;;;;;;;;;21.30;45.17;99243.44;5041057;28;4206;-58
2022/02/07 02:14:13;;;;;;;;;;;;;;;21.29;45.05;99245.59;5064004;28;4327;-59
2022/02/07 02:17:07;;;;;;;;;;;;;;;21.33;44.79;99259.34;5081983;28;6437;-59
2022/02/07 02:20:40;;;;;;;;;;;;;;;21.29;44.78;99265.03;5058031;28;4166;-58
2022/02/07 02:32:32;;;;;;;;;;;;;;;21.27;44.82;99268.59;5060264;28;4972;-58
2022/02/07 02:34:30;;;;;;;;;;;;;;;21.27;44.88;99293.78;5082775;28;4193;-59
2022/02/07 02:37:08;;;;;;;;;;;;;;;21.28;45.05;99303.88;5063417;28;5243;-59
2022/02/07 02:47:47;;;;;;;;;;;;;;;21.25;44.66;99349.16;5082460;28;4045;-58
2022/02/07 02:52:57;;;;;;;;;;;;;;;21.25;44.75;99369.31;5060032;28;4214;-59
2022/02/07 02:55:24;;;;;;;;;;;;;;;21.25;44.63;99363.56;5065227;28;6086;-59
2022/02/07 02:57:51;;;;;;;;;;;;;;;21.26;44.61;99376.56;5080518;28;4200;-58
2022/02/07 03:00:18;;;;;;;;;;;;;;;21.26;44.83;99388.06;5064086;28;4170;-59
2022/02/07 03:02:45;;;;;;;;;;;;;;;21.26;44.61;99393.09;5064569;28;4260;-59
2022/02/07 03:05:11;;;;;;;;;;;;;;;21.26;44.81;99393.81;5084692;28;4160;-59
2022/02/07 03:07:37;;;;;;;;;;;;;;;21.24;44.69;99399.53;5083560;28;4178;-59
2022/02/07 03:10:06;;;;;;;;;;;;;;;21.25;44.82;99417.53;5065420;28;5275;-58
2022/02/07 03:12:39;;;;;;;;;;;;;;;21.23;44.60;99418.22;5065137;28;4224;-59
2022/02/07 03:17:50;;;;;;;;;;;;;;;21.23;44.54;99440.53;5065283;28;4300;-58
2022/02/07 03:20:17;;;;;;;;;;;;;;;21.24;44.45;99454.22;5083206;28;4182;-59
2022/02/07 03:22:43;;;;;;;;;;;;;;;21.24;44.47;99459.25;5081082;28;4205;-58
2022/02/07 03:25:10;;;;;;;;;;;;;;;21.25;44.46;99467.19;5064229;28;4401;-58
2022/02/07 03:27:43;;;;;;;;;;;;;;;21.25;44.58;99475.84;5080088;28;4162;-59
2022/02/07 03:30:20;;;;;;;;;;;;;;;21.24;44.52;99485.91;5063551;28;5394;-59
2022/02/07 03:32:49;;;;;;;;;;;;;;;21.24;44.33;99488.78;5063240;28;4051;-59
2022/02/07 03:35:18;;;;;;;;;;;;;;;21.23;44.28;99481.53;5065282;28;4348;-58
2022/02/07 03:37:45;;;;;;;;;;;;;;;21.23;44.23;99498.81;5064747;28;4047;-59
2022/02/07 03:40:13;;;;;;;;;;;;;;;21.26;44.31;99508.25;5071617;28;5300;-59
2022/02/07 03:42:41;;;;;;;;;;;;;;;21.26;44.12;99514.72;5058897;28;4232;-58
2022/02/07 03:45:08;;;;;;;;;;;;;;;21.27;44.20;99506.81;5066291;28;4183;-58
2022/02/07 03:47:42;;;;;;;;;;;;;;;21.25;44.09;99524.78;5068250;28;4214;-58
2022/02/07 03:50:09;;;;;;;;;;;;;;;21.24;44.17;99529.09;5067087;28;5410;-58
2022/02/07 03:52:42;;;;;;;;;;;;;;;21.22;44.04;99537.66;5067144;28;4205;-59
2022/02/07 03:55:09;;;;;;;;;;;;;;;21.21;44.33;99544.84;5067807;28;4218;-59
2022/02/07 03:57:37;;;;;;;;;;;;;;;21.22;44.12;99557.09;5067251;28;4065;-59
2022/02/07 04:00:05;;;;;;;;;;;;;;;21.23;44.31;99562.16;5068683;28;4233;-59
2022/02/07 04:02:44;;;;;;;;;;;;;;;21.24;44.10;99574.41;5087666;28;4179;-58
2022/02/07 04:05:41;;;;;;;;;;;;;;;21.24;44.40;99580.16;5061940;28;5381;-59
2022/02/07 04:08:11;;;;;;;;;;;;;;;21.25;44.64;99584.50;5061191;28;4048;-59
2022/02/07 04:10:52;;;;;;;;;;;;;;;21.26;44.81;99600.38;5068768;28;4215;-59
2022/02/07 04:13:25;;;;;;;;;;;;;;;21.26;44.68;99606.84;5062613;28;4136;-58
2022/02/07 04:15:54;;;;;;;;;;;;;;;21.25;44.50;99611.13;5068436;28;5718;-58
2022/02/07 04:18:21;;;;;;;;;;;;;;;21.23;44.60;99602.44;5067691;28;4130;-58
2022/02/07 04:20:48;;;;;;;;;;;;;;;21.30;44.32;99624.22;5086310;28;4196;-59
2022/02/07 04:23:14;;;;;;;;;;;;;;;21.29;44.46;99622.75;5086428;28;5492;-59
2022/02/07 04:25:55;;;;;;;;;;;;;;;21.29;44.57;99634.28;5067704;28;4319;-59
2022/02/07 04:28:22;;;;;;;;;;;;;;;21.29;44.31;99640.03;5060264;28;4392;-58
2022/02/07 04:30:49;;;;;;;;;;;;;;;21.29;44.20;99657.31;5059484;28;4203;-59
2022/02/07 04:33:18;;;;;;;;;;;;;;;21.17;43.78;99674.28;5058232;28;4134;-59
2022/02/07 04:35:45;;;;;;;;;;;;;;;21.19;43.11;99676.47;5083288;28;4156;-59
2022/02/07 04:38:12;;;;;;;;;;;;;;;21.21;43.05;99679.41;5067218;28;4309;-58
2022/02/07 04:40:41;;;;;;;;;;;;;;;21.23;43.02;99680.19;5086194;28;4276;-59
2022/02/07 04:43:10;;;;;;;;;;;;;;;21.25;43.35;99693.91;5062645;28;5068;-58
2022/02/07 04:48:31;;;;;;;;;;;;;;;21.25;43.71;99706.16;5067062;28;4073;-58
2022/02/07 04:53:53;;;;;;;;;;;;;;;21.28;43.93;99718.44;5067115;28;4323;-59
2022/02/07 04:57:04;;;;;;;;;;;;;;;21.23;44.15;99726.25;5084599;28;4160;-58
2022/02/07 04:59:14;;;;;;;;;;;;;;;21.20;44.17;99742.00;5065617;28;4166;-59
2022/02/07 05:01:49;;;;;;;;;;;;;;;21.23;44.39;99762.94;5067334;28;4202;-59
2022/02/07 05:04:30;;;;;;;;;;;;;;;21.25;44.07;99755.09;5068534;28;4137;-59
2022/02/07 05:15:13;;;;;;;;;;;;;;;21.27;44.39;99792.56;5047851;28;4156;-58
2022/02/07 05:17:40;;;;;;;;;;;;;;;21.27;44.35;99786.81;5061582;28;4130;-59
2022/02/07 05:20:16;;;;;;;;;;;;;;;21.27;44.21;99801.22;5084687;28;4164;-58
2022/02/07 05:23:01;;;;;;;;;;;;;;;21.25;44.32;99806.91;5064833;28;5287;-59
2022/02/07 05:25:40;;;;;;;;;;;;;;;21.22;44.42;99813.31;5079642;28;4176;-59
2022/02/07 05:28:40;;;;;;;;;;;;;;;21.20;44.43;99822.63;5066481;28;5258;-59
2022/02/07 05:31:27;;;;;;;;;;;;;;;21.20;44.35;99828.38;5071033;28;4170;-59
2022/02/07 05:34:06;;;;;;;;;;;;;;;21.22;44.52;99839.22;5065384;28;5355;-59
2022/02/07 05:36:59;;;;;;;;;;;;;;;21.21;44.67;99847.13;5061542;28;5357;-59
2022/02/07 05:39:45;;;;;;;;;;;;;;;21.22;44.51;99854.34;5065879;28;4232;-59
2022/02/07 05:42:34;;;;;;;;;;;;;;;21.23;44.62;99860.81;5041909;28;5679;-59
2022/02/07 05:45:07;;;;;;;;;;;;;;;21.23;44.68;99867.31;5040024;28;5227;-58
2022/02/07 05:47:47;;;;;;;;;;;;;;;21.24;44.77;99885.34;5065480;28;5211;-58
2022/02/07 05:50:52;;;;;;;;;;;;;;;21.24;44.69;99891.81;5046390;28;4348;-58
2022/02/07 05:53:29;;;;;;;;;;;;;;;21.22;44.70;99900.41;5058304;28;6608;-59
2022/02/07 05:56:03;;;;;;;;;;;;;;;21.24;44.68;99900.47;5059665;28;4318;-59
2022/02/07 05:58:48;;;;;;;;;;;;;;;21.22;44.70;99911.19;5084908;28;4088;-59
2022/02/07 06:01:33;;;;;;;;;;;;;;;21.21;44.62;99927.75;5085451;28;4277;-59
2022/02/07 06:04:00;;;;;;;;;;;;;;;21.23;44.51;99924.16;5066780;28;4220;-59
2022/02/07 06:06:28;;;;;;;;;;;;;;;21.22;44.84;99931.34;5065479;28;5530;-58
2022/02/07 06:08:54;;;;;;;;;;;;;;;21.23;44.57;99947.19;5065716;28;4249;-58
2022/02/07 06:11:23;;;;;;;;;;;;;;;21.24;45.08;99948.69;5059673;28;4131;-56
2022/02/07 06:13:53;;;;;;;;;;;;;;;21.24;44.93;99963.06;5066723;28;3998;-57
2022/02/07 06:16:19;;;;;;;;;;;;;;;21.31;44.64;99965.44;5078894;28;4243;-57
2022/02/07 06:18:49;;;;;;;;;;;;;;;21.24;44.58;99981.09;5063633;28;4201;-56
2022/02/07 06:21:18;;;;;;;;;;;;;;;21.23;44.48;99987.50;5050009;28;4145;-64
2022/02/07 06:23:45;;;;;;;;;;;;;;;21.25;44.19;99996.19;5053537;28;4150;-68
2022/02/07 06:26:15;;;;;;;;;;;;;;;21.34;44.91;100004.41;5073721;28;4157;-62
2022/02/07 06:28:44;;;;;;;;;;;;;;;21.40;44.90;100006.00;5064768;28;4223;-66
2022/02/07 06:31:10;;;;;;;;;;;;;;;21.52;44.65;100012.13;5058993;28;5480;-63
2022/02/07 06:33:37;;;;;;;;;;;;;;;21.44;44.59;100014.75;5061536;28;4296;-61
2022/02/07 06:36:06;;;;;;;;;;;;;;;21.32;44.16;100012.25;5065423;28;5343;-77
2022/02/07 06:38:32;;;;;;;;;;;;;;;21.37;44.19;100013.81;5080979;28;4171;-77
2022/02/07 06:40:59;;;;;;;;;;;;;;;21.40;44.00;100029.78;5062526;28;4188;-69
2022/02/07 06:43:27;;;;;;;;;;;;;;;21.41;44.13;100036.28;5060320;28;4216;-72
2022/02/07 06:45:54;;;;;;;;;;;;;;;21.37;44.01;100030.38;5060921;28;4152;-72
2022/02/07 06:48:21;;;;;;;;;;;;;;;21.36;43.78;100051.94;5064439;28;4235;-74
2022/02/07 06:50:48;;;;;;;;;;;;;;;21.32;43.98;100046.78;5081274;28;6446;-72
2022/02/07 06:53:14;;;;;;;;;;;;;;;21.29;43.84;100063.28;5060548;28;4224;-73
2022/02/07 06:55:42;;;;;;;;;;;;;;;21.36;43.73;100057.72;5062880;28;4289;-73
2022/02/07 06:58:09;;;;;;;;;;;;;;;21.27;44.09;100063.22;5059657;28;4222;-73
2022/02/07 07:00:36;;;;;;;;;;;;;;;21.36;44.56;100075.00;5067854;28;4233;-71
2022/02/07 07:03:05;;;;;;;;;;;;;;;21.28;44.47;100087.75;5067672;28;4115;-71
2022/02/07 07:05:32;;;;;;;;;;;;;;;21.20;45.07;100093.25;5086912;28;4305;-72
2022/02/07 07:08:01;;;;;;;;;;;;;;;21.19;44.97;100103.31;5083583;28;4223;-71
2022/02/07 07:10:28;;;;;;;;;;;;;;;21.17;44.67;100106.13;5084110;28;4219;-71
2022/02/07 07:13:09;;;;;;;;;;;;;;;21.21;45.21;100109.13;5067399;28;4027;-68
2022/02/07 07:15:43;;;;;;;;;;;;;;;21.24;44.79;100122.16;5082227;28;4138;-70
2022/02/07 07:18:10;;;;;;;;;;;;;;;21.29;44.82;100129.50;5080357;28;4183;-67
2022/02/07 07:20:39;;;;;;;;;;;;;;;21.44;44.86;100130.72;5069907;28;4042;-72
2022/02/07 07:23:06;;;;;;;;;;;;;;;21.48;44.66;100144.50;5063367;28;4874;-71
2022/02/07 07:25:37;;;;;;;;;;;;;;;21.43;45.21;100142.91;5065217;28;4232;-74
2022/02/07 07:28:07;;;;;;;;;;;;;;;21.45;45.19;100145.84;5087727;28;5191;-71
2022/02/07 07:30:45;;;;;;;;;;;;;;;21.43;45.01;100149.41;5064555;28;4212;-64
2022/02/07 07:33:19;;;;;;;;;;;;;;;21.45;44.98;100174.66;5076494;28;5398;-70
2022/02/07 07:35:46;;;;;;;;;;;;;;;21.48;45.12;100174.03;5090763;28;4088;-68
2022/02/07 07:38:13;;;;;;;;;;;;;;;21.39;45.37;100183.06;5074952;28;4203;-69
2022/02/07 07:40:40;;;;;;;;;;;;;;;21.33;46.08;100181.47;5073434;28;4259;-69
2022/02/07 07:43:11;;;;;;;;;;;;;;;21.30;46.59;100185.72;5067333;28;4208;-66
2022/02/07 07:46:02;;;;;;;;;;;;;;;21.17;45.32;100197.50;5086649;28;4211;-64
2022/02/07 07:48:37;;;;;;;;;;;;;;;20.95;44.18;100194.63;5068475;28;5517;-67
2022/02/07 07:51:40;;;;;;;;;;;;;;;20.73;43.85;100206.84;5082135;28;4150;-67
2022/02/07 07:54:46;;;;;;;;;;;;;;;20.65;43.77;100207.28;5084576;28;4311;-68
2022/02/07 08:03:17;;;;;;;;;;;;;;;21.36;45.63;100225.47;5030689;28;4221;-68
2022/02/07 08:05:46;;;;;;;;;;;;;;;21.39;45.99;100237.78;5083973;28;4146;-69
2022/02/07 08:08:36;;;;;;;;;;;;;;;21.42;46.18;100239.38;5064513;28;4170;-67
2022/02/07 08:11:08;;;;;;;;;;;;;;;21.44;45.78;100248.06;5062361;28;4137;-68
2022/02/07 08:13:43;;;;;;;;;;;;;;;21.58;45.92;100251.41;5062018;28;4157;-66
2022/02/07 08:16:14;;;;;;;;;;;;;;;21.58;45.80;100247.78;5062258;28;5300;-69
2022/02/07 08:18:41;;;;;;;;;;;;;;;21.54;45.91;100262.81;5083431;28;5360;-72
2022/02/07 08:21:07;;;;;;;;;;;;;;;21.53;45.99;100272.84;5074791;28;4126;-69
2022/02/07 08:23:35;;;;;;;;;;;;;;;21.52;46.15;100277.88;5082550;28;4028;-69
2022/02/07 08:26:03;;;;;;;;;;;;;;;21.57;46.05;100293.13;5085004;28;4264;-69
2022/02/07 08:28:43;;;;;;;;;;;;;;;21.56;46.00;100294.56;5085359;28;4150;-68
2022/02/07 08:31:09;;;;;;;;;;;;;;;21.54;45.77;100291.59;5079461;28;4151;-68
2022/02/07 08:33:36;;;;;;;;;;;;;;;21.53;46.14;100310.28;5084036;28;4249;-66
2022/02/07 08:36:05;;;;;;;;;;;;;;;21.49;46.13;100313.06;5085755;28;6406;-67
2022/02/07 08:38:32;;;;;;;;;;;;;;;21.50;45.93;100311.63;5086528;28;4337;-66
2022/02/07 08:40:58;;;;;;;;;;;;;;;21.50;46.00;100320.28;5083083;28;4217;-67
2022/02/07 08:43:24;;;;;;;;;;;;;;;21.44;45.62;100317.19;5083807;28;4214;-62
2022/02/07 08:45:52;;;;;;;;;;;;;;;20.75;41.08;100327.75;5072433;28;4205;-61
2022/02/07 08:48:18;;;;;;;;;;;;;;;21.01;41.43;100321.47;5082297;28;4148;-61
2022/02/07 08:50:45;;;;;;;;;;;;;;;21.20;41.45;100340.84;5086384;28;4236;-61
2022/02/07 08:53:13;;;;;;;;;;;;;;;21.29;42.54;100342.59;5082267;28;6455;-62
2022/02/07 08:55:42;;;;;;;;;;;;;;;21.32;43.59;100334.78;5086343;28;5288;-61
2022/02/07 08:58:13;;;;;;;;;;;;;;;21.31;44.09;100341.94;5084361;28;4151;-62
2022/02/07 09:00:48;;;;;;;;;;;;;;;21.33;44.40;100360.03;5084703;28;5484;-62
2022/02/07 09:10:44;;;;;;;;;;;;;;;21.59;45.64;100373.16;5083006;28;4205;-68
2022/02/07 09:13:10;;;;;;;;;;;;;;;21.72;45.55;100380.78;5077025;28;5265;-69
2022/02/07 09:18:07;;;;;;;;;;;;;;;21.89;45.07;100387.81;5087276;28;5217;-68
2022/02/07 09:20:35;;;;;;;;;;;;;;;21.94;44.83;100395.19;5083449;28;4335;-70
2022/02/07 09:23:01;;;;;;;;;;;;;;;21.94;44.80;100392.31;5083281;28;4467;-70
2022/02/07 09:25:28;;;;;;;;;;;;;;;21.95;44.68;100390.91;5083842;28;4243;-65
2022/02/07 09:27:54;;;;;;;;;;;;;;;21.95;44.42;100397.41;5083584;28;4072;-67
2022/02/07 09:30:21;;;;;;;;;;;;;;;22.03;44.45;100391.16;5083184;28;4161;-68
2022/02/07 09:32:47;;;;;;;;;;;;;;;22.08;44.39;100407.19;5085450;28;5505;-68
2022/02/07 09:35:14;;;;;;;;;;;;;;;22.13;44.40;100411.69;5084166;28;4237;-71
2022/02/07 09:37:40;;;;;;;;;;;;;;;22.17;44.28;100420.47;5083061;28;4305;-69
2022/02/07 09:40:07;;;;;;;;;;;;;;;22.14;44.37;100429.72;5081974;28;4154;-68
2022/02/07 09:42:34;;;;;;;;;;;;;;;22.12;44.23;100436.13;5078526;28;4183;-65
2022/02/07 09:45:12;;;;;;;;;;;;;;;22.20;44.23;100432.78;5061099;28;5249;-63
2022/02/07 09:47:39;;;;;;;;;;;;;;;22.20;44.64;100443.59;5084174;28;4190;-62
2022/02/07 09:50:06;;;;;;;;;;;;;;;22.21;44.41;100447.94;5080878;28;4193;-63
2022/02/07 09:52:33;;;;;;;;;;;;;;;22.23;44.20;100453.81;5080756;28;5335;-62
2022/02/07 09:54:59;;;;;;;;;;;;;;;22.17;43.97;100452.19;5079319;28;5256;-68
2022/02/07 09:57:26;;;;;;;;;;;;;;;22.14;44.08;100465.03;5080300;28;4167;-69
2022/02/07 09:59:54;;;;;;;;;;;;;;;21.94;44.25;100481.66;5079274;28;4590;-67
2022/02/07 10:02:30;;;;;;;;;;;;;;;21.70;43.58;100482.31;5077694;28;5110;-68
2022/02/07 10:04:59;;;;;;;;;;;;;;;21.98;42.97;100492.59;5078645;28;4239;-62
2022/02/07 10:07:36;;;;;;;;;;;;;;;22.08;43.36;100496.56;5062649;28;4352;-61
2022/02/07 10:15:43;;;;;;;;;;;;;;;22.24;43.87;100518.72;5082411;28;4444;-70
2022/02/07 10:35:00;;;;;;;;;;;;;;;21.91;43.73;100563.72;5081078;28;4182;-65
2022/02/07 10:37:54;;;;;;;;;;;;;;;21.87;43.92;100557.81;5078760;28;5390;-63
2022/02/07 10:40:56;;;;;;;;;;;;;;;21.88;43.97;100576.59;5077324;28;5274;-63
2022/02/07 10:46:10;;;;;;;;;;;;;;;21.99;43.70;100574.78;5080108;28;4281;-67
2022/02/07 10:48:42;;;;;;;;;;;;;;;21.95;43.95;100579.03;5081239;28;4153;-66
2022/02/07 10:51:15;;;;;;;;;;;;;;;22.07;43.69;100581.59;5079475;28;5465;-65
2022/02/07 10:53:43;;;;;;;;;;;;;;;22.14;43.40;100573.88;5085660;28;4296;-68
2022/02/07 10:56:10;;;;;;;;;;;;;;;22.30;43.78;100583.13;5081824;28;4182;-75
2022/02/07 10:58:37;;;;;;;;;;;;;;;22.08;43.70;100579.44;5083978;28;4194;-67
2022/02/07 11:01:18;;;;;;;;;;;;;;;21.87;43.64;100592.41;5078357;28;4200;-68
2022/02/07 11:03:57;;;;;;;;;;;;;;;21.82;44.04;100602.31;5086730;28;4205;-73
2022/02/07 11:06:32;;;;;;;;;;;;;;;21.70;44.00;100593.97;5086855;28;4141;-72
2022/02/07 11:09:17;;;;;;;;;;;;;;;21.62;43.79;100611.69;5082799;28;4170;-69
2022/02/07 11:17:12;;;;;;;;;;;;;;;21.60;43.72;100620.28;5069829;28;4131;-68
2022/02/07 11:19:49;;;;;;;;;;;;;;;21.84;43.65;100631.22;5041266;28;4182;-66
2022/02/07 11:22:34;;;;;;;;;;;;;;;21.93;43.52;100642.38;5061553;28;4209;-66
2022/02/07 11:25:43;;;;;;;;;;;;;;;21.96;43.42;100651.81;5065905;28;5383;-70
2022/02/07 11:28:10;;;;;;;;;;;;;;;21.92;43.13;100651.66;5064676;28;4203;-68
2022/02/07 11:30:50;;;;;;;;;;;;;;;21.88;43.51;100660.94;5065231;28;4136;-68
2022/02/07 11:33:36;;;;;;;;;;;;;;;21.93;43.35;100658.94;5062945;28;5283;-71
2022/02/07 11:36:03;;;;;;;;;;;;;;;21.81;43.48;100664.25;5079116;28;5207;-65
2022/02/07 11:38:30;;;;;;;;;;;;;;;21.87;43.27;100678.88;5082506;28;4217;-68
2022/02/07 11:40:57;;;;;;;;;;;;;;;21.92;43.16;100674.72;5084786;28;4022;-68
2022/02/07 11:43:29;;;;;;;;;;;;;;;22.03;43.23;100685.25;5080700;28;4457;-74
2022/02/07 11:46:21;;;;;;;;;;;;;;;22.10;43.19;100674.66;5086775;28;4195;-76
2022/02/07 11:48:48;;;;;;;;;;;;;;;22.07;42.68;100696.94;5082579;28;5420;-68
2022/02/07 11:51:16;;;;;;;;;;;;;;;22.14;43.13;100681.31;5084318;28;4228;-70
2022/02/07 11:53:47;;;;;;;;;;;;;;;22.28;43.16;100689.03;5085454;28;4497;-70
2022/02/07 11:56:22;;;;;;;;;;;;;;;22.35;42.98;100697.22;5084761;28;5489;-66
2022/02/07 11:58:59;;;;;;;;;;;;;;;22.43;42.71;100711.22;5086794;28;4409;-71
2022/02/07 12:01:44;;;;;;;;;;;;;;;22.49;42.79;100717.19;5081374;28;4157;-70
2022/02/07 12:04:10;;;;;;;;;;;;;;;22.44;43.03;100723.50;5084718;28;4207;-70
2022/02/07 12:06:36;;;;;;;;;;;;;;;22.43;42.81;100719.88;5084326;28;4218;-69
2022/02/07 12:09:10;;;;;;;;;;;;;;;22.45;42.44;100722.09;5085828;28;4190;-71
2022/02/07 12:11:43;;;;;;;;;;;;;;;22.50;43.07;100735.28;5066205;28;4347;-69
2022/02/07 12:14:29;;;;;;;;;;;;;;;22.28;43.08;100749.63;5086239;28;4528;-71
2022/02/07 12:16:55;;;;;;;;;;;;;;;22.18;43.08;100729.78;5084504;28;4374;-63
2022/02/07 12:19:33;;;;;;;;;;;;;;;22.07;43.00;100743.06;5068494;28;4410;-64
2022/02/07 12:22:01;;;;;;;;;;;;;;;21.94;42.97;100752.66;5080936;28;4195;-63
2022/02/07 12:24:48;;;;;;;;;;;;;;;22.08;42.80;100747.44;5059743;28;4273;-63
2022/02/07 12:27:15;;;;;;;;;;;;;;;22.11;42.73;100759.78;5083959;28;5428;-62
2022/02/07 12:29:59;;;;;;;;;;;;;;;22.04;42.81;100766.75;5062998;28;4152;-63
2022/02/07 12:32:26;;;;;;;;;;;;;;;22.07;42.71;100766.13;5077678;28;5405;-66
2022/02/07 12:34:52;;;;;;;;;;;;;;;22.08;42.50;100758.97;5062117;28;4295;-71
2022/02/07 12:37:19;;;;;;;;;;;;;;;22.15;42.65;100746.25;5063016;28;5450;-70
2022/02/07 12:39:49;;;;;;;;;;;;;;;22.06;42.71;100758.13;5083850;28;4237;-69
2022/02/07 12:42:20;;;;;;;;;;;;;;;22.06;42.73;100758.91;5082133;28;4144;-69
2022/02/07 12:44:46;;;;;;;;;;;;;;;22.04;42.66;100784.78;5083347;28;4081;-68
2022/02/07 12:47:14;;;;;;;;;;;;;;;22.05;42.87;100780.47;5084224;28;4342;-67
2022/02/07 12:49:47;;;;;;;;;;;;;;;22.10;42.84;100776.34;5086702;28;4156;-66
2022/02/07 12:52:13;;;;;;;;;;;;;;;22.13;42.82;100783.69;5081722;28;5557;-66
2022/02/07 12:54:40;;;;;;;;;;;;;;;22.24;43.06;100795.59;5082137;28;5231;-65
2022/02/07 12:57:06;;;;;;;;;;;;;;;22.26;42.66;100807.22;5082743;28;4537;-68
2022/02/07 12:59:32;;;;;;;;;;;;;;;22.22;42.83;100809.94;5083345;28;5263;-63
2022/02/07 13:01:59;;;;;;;;;;;;;;;22.20;42.82;100801.94;5080972;28;4225;-62
2022/02/07 13:04:25;;;;;;;;;;;;;;;22.26;42.49;100810.84;5079878;28;5196;-66
2022/02/07 13:06:55;;;;;;;;;;;;;;;22.14;42.48;100816.88;5084060;28;4165;-65
2022/02/07 13:09:25;;;;;;;;;;;;;;;22.12;42.46;100816.06;5081411;28;5457;-66
2022/02/07 13:12:01;;;;;;;;;;;;;;;22.15;42.72;100818.38;5075841;28;4219;-65
2022/02/07 13:14:31;;;;;;;;;;;;;;;22.20;42.98;100819.25;5084578;28;4231;-62
2022/02/07 13:16:57;;;;;;;;;;;;;;;22.12;43.15;100813.91;5084782;28;4135;-62
2022/02/07 13:19:25;;;;;;;;;;;;;;;22.04;43.38;100827.28;5069924;28;5563;-61
2022/02/07 13:21:55;;;;;;;;;;;;;;;22.16;42.91;100824.88;5076370;28;4057;-72
2022/02/07 13:24:22;;;;;;;;;;;;;;;21.88;41.65;100836.03;5077686;28;5253;-67
2022/02/07 13:26:49;;;;;;;;;;;;;;;22.03;41.11;100835.19;5084441;28;4208;-78
2022/02/07 13:29:16;;;;;;;;;;;;;;;22.14;41.05;100842.81;5081131;28;5318;-83
2022/02/07 13:31:42;;;;;;;;;;;;;;;22.17;41.29;100832.88;5077948;28;4282;-71
2022/02/07 13:34:19;;;;;;;;;;;;;;;22.17;41.89;100855.19;5072242;28;5297;-62
2022/02/07 13:36:49;;;;;;;;;;;;;;;21.30;29.96;100867.47;5082233;28;4063;-68
2022/02/07 13:39:17;;;;;;;;;;;;;;;21.73;30.95;100867.16;5076371;28;4169;-68
2022/02/07 13:41:43;;;;;;;;;;;;;;;21.95;31.66;100881.00;5075047;28;4201;-68
2022/02/07 13:44:09;;;;;;;;;;;;;;;22.16;33.85;100877.50;5079185;28;4207;-69
2022/02/07 13:46:38;;;;;;;;;;;;;;;22.17;36.36;100886.91;5084553;28;4277;-69
2022/02/07 13:49:05;;;;;;;;;;;;;;;21.96;37.42;100882.47;5084095;28;4156;-71
2022/02/07 13:51:32;;;;;;;;;;;;;;;21.99;37.62;100881.16;5062679;28;4223;-67
2022/02/07 13:53:58;;;;;;;;;;;;;;;21.88;37.61;100887.94;5074980;28;4223;-64
2022/02/07 13:56:29;;;;;;;;;;;;;;;21.80;37.36;100893.34;5076011;28;4441;-61
2022/02/07 13:58:55;;;;;;;;;;;;;;;21.86;38.69;100896.50;5077273;28;4541;-63
2022/02/07 14:01:25;;;;;;;;;;;;;;;21.47;36.98;100909.28;5075025;28;4289;-67
2022/02/07 14:03:57;;;;;;;;;;;;;;;21.72;38.00;100900.25;5077629;28;4218;-61
2022/02/07 14:06:26;;;;;;;;;;;;;;;21.87;38.78;100897.97;5080457;28;4150;-63
2022/02/07 14:08:55;;;;;;;;;;;;;;;21.94;39.84;100926.41;5078749;28;4323;-62
2022/02/07 14:11:25;;;;;;;;;;;;;;;21.98;39.76;100925.81;5076436;28;4154;-59
2022/02/07 14:13:55;;;;;;;;;;;;;;;21.99;40.12;100924.41;5080317;28;4225;-61
2022/02/07 14:16:22;;;;;;;;;;;;;;;22.07;40.21;100942.03;5081920;28;4221;-64
2022/02/07 14:18:48;;;;;;;;;;;;;;;22.12;40.20;100943.69;5080507;28;4208;-64
2022/02/07 14:21:17;;;;;;;;;;;;;;;22.06;40.63;100937.69;5076963;28;5466;-60
2022/02/07 14:23:45;;;;;;;;;;;;;;;21.99;41.14;100953.25;5077846;28;4241;-62
2022/02/07 14:26:37;;;;;;;;;;;;;;;21.95;41.37;100973.25;5082870;28;4184;-65
2022/02/07 14:29:05;;;;;;;;;;;;;;;22.03;41.04;100975.72;5072020;28;4090;-68
2022/02/07 14:31:31;;;;;;;;;;;;;;;22.01;41.18;100999.44;5052839;28;4273;-66
2022/02/07 14:33:58;;;;;;;;;;;;;;;22.14;41.30;100992.78;5060141;28;5250;-71
2022/02/07 14:36:27;;;;;;;;;;;;;;;22.28;41.16;100994.81;5062799;28;5303;-66
2022/02/07 14:38:54;;;;;;;;;;;;;;;22.33;41.16;101005.09;5060411;28;5363;-64
2022/02/07 14:41:21;;;;;;;;;;;;;;;22.26;40.95;101006.25;5063161;28;4410;-64
2022/02/07 14:43:49;;;;;;;;;;;;;;;22.10;41.27;101018.56;5082706;28;4151;-63
2022/02/07 14:46:22;;;;;;;;;;;;;;;22.08;41.13;101009.88;5084746;28;4211;-60
2022/02/07 14:48:49;;;;;;;;;;;;;;;22.00;41.41;101021.03;5084834;28;4154;-59
2022/02/07 14:51:15;;;;;;;;;;;;;;;21.99;41.69;101019.56;5082301;28;5224;-62
2022/02/07 14:53:42;;;;;;;;;;;;;;;22.02;41.68;101024.03;5080822;28;4203;-60
2022/02/07 14:56:09;;;;;;;;;;;;;;;22.13;41.62;101025.94;5078374;28;4214;-65
2022/02/07 14:58:36;;;;;;;;;;;;;;;22.33;41.43;101028.19;5079265;28;4250;-61
2022/02/07 15:01:02;;;;;;;;;;;;;;;22.15;41.53;101049.09;5080732;28;4236;-62
2022/02/07 15:03:29;;;;;;;;;;;;;;;22.30;41.70;101055.47;5080506;28;4552;-66
2022/02/07 15:06:01;;;;;;;;;;;;;;;22.45;41.72;101063.31;5087434;28;4186;-66
2022/02/07 15:08:28;;;;;;;;;;;;;;;22.50;41.61;101064.97;5083683;28;4203;-67
2022/02/07 15:10:55;;;;;;;;;;;;;;;22.57;42.05;101069.59;5087106;28;5435;-64